sensor_id;sensor_type;location;lat;lon;timestamp;pressure;altitude;pressure_sealevel;temperature;humidity
49841;BME280;35738;49.890;5.930;2024-02-04T00:00:40;96793.53;;;5.59;92.78
49841;BME280;35738;49.890;5.930;2024-02-04T00:03:07;96784.06;;;5.58;92.94
49841;BME280;35738;49.890;5.930;2024-02-04T00:05:34;96774.59;;;5.57;93.32
49841;BME280;35738;49.890;5.930;2024-02-04T00:08:00;96789.53;;;5.56;92.26
49841;BME280;35738;49.890;5.930;2024-02-04T00:10:28;96791.34;;;5.56;92.59
49841;BME280;35738;49.890;5.930;2024-02-04T00:12:55;96793.97;;;5.56;93.00
49841;BME280;35738;49.890;5.930;2024-02-04T00:15:21;96793.97;;;5.56;92.48
49841;BME280;35738;49.890;5.930;2024-02-04T00:17:48;96791.34;;;5.56;93.32
49841;BME280;35738;49.890;5.930;2024-02-04T00:20:15;96780.31;;;5.54;93.02
49841;BME280;35738;49.890;5.930;2024-02-04T00:22:42;96778.72;;;5.53;92.38
49841;BME280;35738;49.890;5.930;2024-02-04T00:25:08;96794.41;;;5.53;92.15
49841;BME280;35738;49.890;5.930;2024-02-04T00:27:38;96789.19;;;5.53;92.79
49841;BME280;35738;49.890;5.930;2024-02-04T00:30:05;96764.03;;;5.52;92.45
49841;BME280;35738;49.890;5.930;2024-02-04T00:32:32;96779.72;;;5.52;92.34
49841;BME280;35738;49.890;5.930;2024-02-04T00:34:58;96770.28;;;5.51;92.49
49841;BME280;35738;49.890;5.930;2024-02-04T00:37:25;96780.75;;;5.51;93.42
49841;BME280;35738;49.890;5.930;2024-02-04T00:39:51;96769.47;;;5.50;92.58
49841;BME280;35738;49.890;5.930;2024-02-04T00:42:18;96763.44;;;5.50;92.34
49841;BME280;35738;49.890;5.930;2024-02-04T00:44:44;96772.31;;;5.48;92.88
49841;BME280;35738;49.890;5.930;2024-02-04T00:47:11;96789.63;;;5.50;92.34
49841;BME280;35738;49.890;5.930;2024-02-04T00:49:37;96779.16;;;5.50;93.08
49841;BME280;35738;49.890;5.930;2024-02-04T00:52:05;96792.25;;;5.50;92.63
49841;BME280;35738;49.890;5.930;2024-02-04T00:54:31;96796.47;;;5.51;92.17
49841;BME280;35738;49.890;5.930;2024-02-04T00:56:58;96805.34;;;5.50;92.57
49841;BME280;35738;49.890;5.930;2024-02-04T00:59:25;96798.28;;;5.50;93.00
49841;BME280;35738;49.890;5.930;2024-02-04T01:01:52;96784.84;;;5.46;92.57
49841;BME280;35738;49.890;5.930;2024-02-04T01:04:19;96794.88;;;5.50;92.02
49841;BME280;35738;49.890;5.930;2024-02-04T01:06:45;96789.84;;;5.48;92.13
49841;BME280;35738;49.890;5.930;2024-02-04T01:09:27;96773.34;;;5.47;92.69
49841;BME280;35738;49.890;5.930;2024-02-04T01:11:54;96765.50;;;5.47;92.08
49841;BME280;35738;49.890;5.930;2024-02-04T01:14:20;96777.78;;;5.47;92.38
49841;BME280;35738;49.890;5.930;2024-02-04T01:16:47;96780.41;;;5.47;92.38
49841;BME280;35738;49.890;5.930;2024-02-04T01:19:13;96764.94;;;5.45;92.58
49841;BME280;35738;49.890;5.930;2024-02-04T01:21:40;96787.47;;;5.46;92.87
49841;BME280;35738;49.890;5.930;2024-02-04T01:24:06;96785.88;;;5.45;92.36
49841;BME280;35738;49.890;5.930;2024-02-04T01:26:33;96778.81;;;5.46;92.45
49841;BME280;35738;49.890;5.930;2024-02-04T01:29:00;96779.84;;;5.45;92.54
49841;BME280;35738;49.890;5.930;2024-02-04T01:31:27;96772.78;;;5.45;92.13
49841;BME280;35738;49.890;5.930;2024-02-04T01:33:54;96775.97;;;5.47;93.14
49841;BME280;35738;49.890;5.930;2024-02-04T01:36:21;96777.78;;;5.47;92.97
49841;BME280;35738;49.890;5.930;2024-02-04T01:38:47;96781.22;;;5.47;92.81
49841;BME280;35738;49.890;5.930;2024-02-04T01:41:14;96775.97;;;5.47;92.09
49841;BME280;35738;49.890;5.930;2024-02-04T01:43:41;96778.03;;;5.45;93.17
49841;BME280;35738;49.890;5.930;2024-02-04T01:46:08;96770.97;;;5.46;92.55
49841;BME280;35738;49.890;5.930;2024-02-04T01:48:35;96774.38;;;5.46;92.72
49841;BME280;35738;49.890;5.930;2024-02-04T01:51:03;96776.41;;;5.44;93.26
49841;BME280;35738;49.890;5.930;2024-02-04T01:53:32;96790.09;;;5.46;92.43
49841;BME280;35738;49.890;5.930;2024-02-04T01:56:00;96793.72;;;5.45;92.97
49841;BME280;35738;49.890;5.930;2024-02-04T01:58:27;96786.66;;;5.46;92.52
49841;BME280;35738;49.890;5.930;2024-02-04T02:00:53;96786.91;;;5.44;92.34
49841;BME280;35738;49.890;5.930;2024-02-04T02:03:21;96776.41;;;5.44;92.69
49841;BME280;35738;49.890;5.930;2024-02-04T02:05:48;96761.75;;;5.43;92.38
49841;BME280;35738;49.890;5.930;2024-02-04T02:08:15;96741.81;;;5.42;93.00
49841;BME280;35738;49.890;5.930;2024-02-04T02:10:43;96747.06;;;5.42;92.48
49841;BME280;35738;49.890;5.930;2024-02-04T02:13:27;96725.31;;;5.42;93.17
49841;BME280;35738;49.890;5.930;2024-02-04T02:16:05;96744.66;;;5.41;93.19
49841;BME280;35738;49.890;5.930;2024-02-04T02:21:26;96766.41;;;5.41;92.57
49841;BME280;35738;49.890;5.930;2024-02-04T02:26:50;96757.97;;;5.39;92.29
49841;BME280;35738;49.890;5.930;2024-02-04T02:29:17;96750.13;;;5.39;93.21
49841;BME280;35738;49.890;5.930;2024-02-04T02:31:44;96750.13;;;5.39;92.87
49841;BME280;35738;49.890;5.930;2024-02-04T02:34:15;96742.28;;;5.39;92.72
49841;BME280;35738;49.890;5.930;2024-02-04T02:37:10;96764.00;;;5.40;93.36
49841;BME280;35738;49.890;5.930;2024-02-04T02:39:53;96750.69;;;5.41;92.50
49841;BME280;35738;49.890;5.930;2024-02-04T02:42:22;96761.16;;;5.41;92.63
49841;BME280;35738;49.890;5.930;2024-02-04T02:44:50;96759.56;;;5.40;92.76
49841;BME280;35738;49.890;5.930;2024-02-04T02:47:19;96754.34;;;5.40;93.07
49841;BME280;35738;49.890;5.930;2024-02-04T02:49:46;96751.91;;;5.39;93.15
49841;BME280;35738;49.890;5.930;2024-02-04T02:52:13;96721.34;;;5.39;92.20
49841;BME280;35738;49.890;5.930;2024-02-04T02:54:40;96744.88;;;5.39;93.88
49841;BME280;35738;49.890;5.930;2024-02-04T02:57:06;96742.28;;;5.39;92.55
49841;BME280;35738;49.890;5.930;2024-02-04T02:59:33;96735.41;;;5.38;93.22
49841;BME280;35738;49.890;5.930;2024-02-04T03:02:00;96730.19;;;5.38;93.00
49841;BME280;35738;49.890;5.930;2024-02-04T03:04:27;96750.13;;;5.39;93.08
49841;BME280;35738;49.890;5.930;2024-02-04T03:06:53;96742.28;;;5.39;93.40
49841;BME280;35738;49.890;5.930;2024-02-04T03:09:20;96750.13;;;5.39;92.61
49841;BME280;35738;49.890;5.930;2024-02-04T03:11:46;96729.19;;;5.39;92.98
49841;BME280;35738;49.890;5.930;2024-02-04T03:14:16;96740.66;;;5.38;92.93
49841;BME280;35738;49.890;5.930;2024-02-04T03:16:46;96737.03;;;5.39;92.84
49841;BME280;35738;49.890;5.930;2024-02-04T03:19:12;96738.03;;;5.38;92.41
49841;BME280;35738;49.890;5.930;2024-02-04T03:21:39;96736.22;;;5.39;93.39
49841;BME280;35738;49.890;5.930;2024-02-04T03:24:05;96741.44;;;5.39;93.15
49841;BME280;35738;49.890;5.930;2024-02-04T03:26:32;96733.81;;;5.37;93.37
49841;BME280;35738;49.890;5.930;2024-02-04T03:28:58;96727.00;;;5.36;92.95
49841;BME280;35738;49.890;5.930;2024-02-04T03:31:25;96734.63;;;5.38;93.08
49841;BME280;35738;49.890;5.930;2024-02-04T03:33:51;96719.72;;;5.38;93.23
49841;BME280;35738;49.890;5.930;2024-02-04T03:36:21;96742.28;;;5.39;93.08
49841;BME280;35738;49.890;5.930;2024-02-04T03:38:50;96740.66;;;5.38;92.87
49841;BME280;35738;49.890;5.930;2024-02-04T03:41:17;96711.84;;;5.38;93.54
49841;BME280;35738;49.890;5.930;2024-02-04T03:43:44;96747.50;;;5.39;93.08
49841;BME280;35738;49.890;5.930;2024-02-04T03:46:14;96740.66;;;5.38;93.18
49841;BME280;35738;49.890;5.930;2024-02-04T03:48:41;96747.50;;;5.39;92.78
49841;BME280;35738;49.890;5.930;2024-02-04T03:51:17;96735.41;;;5.38;93.08
49841;BME280;35738;49.890;5.930;2024-02-04T03:53:45;96748.06;;;5.41;92.26
49841;BME280;35738;49.890;5.930;2024-02-04T03:56:12;96745.47;;;5.41;93.25
49841;BME280;35738;49.890;5.930;2024-02-04T03:58:39;96738.84;;;5.39;93.23
49841;BME280;35738;49.890;5.930;2024-02-04T04:01:10;96739.66;;;5.39;93.19
49841;BME280;35738;49.890;5.930;2024-02-04T04:03:43;96742.28;;;5.39;93.36
49841;BME280;35738;49.890;5.930;2024-02-04T04:06:10;96735.22;;;5.40;92.87
49841;BME280;35738;49.890;5.930;2024-02-04T04:08:38;96738.84;;;5.39;93.45
49841;BME280;35738;49.890;5.930;2024-02-04T04:11:06;96721.34;;;5.39;93.29
49841;BME280;35738;49.890;5.930;2024-02-04T04:13:33;96742.28;;;5.39;93.35
49841;BME280;35738;49.890;5.930;2024-02-04T04:16:05;96750.69;;;5.41;93.68
49841;BME280;35738;49.890;5.930;2024-02-04T04:18:32;96750.69;;;5.41;93.32
49841;BME280;35738;49.890;5.930;2024-02-04T04:20:59;96747.50;;;5.39;93.86
49841;BME280;35738;49.890;5.930;2024-02-04T04:23:26;96753.53;;;5.40;93.76
49841;BME280;35738;49.890;5.930;2024-02-04T04:25:52;96759.56;;;5.40;93.34
49841;BME280;35738;49.890;5.930;2024-02-04T04:28:19;96747.50;;;5.39;93.60
49841;BME280;35738;49.890;5.930;2024-02-04T04:30:45;96756.16;;;5.40;93.15
49841;BME280;35738;49.890;5.930;2024-02-04T04:33:12;96747.50;;;5.39;93.35
49841;BME280;35738;49.890;5.930;2024-02-04T04:35:39;96755.13;;;5.41;93.49
49841;BME280;35738;49.890;5.930;2024-02-04T04:38:06;96739.44;;;5.41;93.70
49841;BME280;35738;49.890;5.930;2024-02-04T04:40:32;96738.63;;;5.40;93.72
49841;BME280;35738;49.890;5.930;2024-02-04T04:42:59;96738.63;;;5.40;93.89
49841;BME280;35738;49.890;5.930;2024-02-04T04:45:25;96737.59;;;5.41;93.47
49841;BME280;35738;49.890;5.930;2024-02-04T04:47:52;96740.66;;;5.38;94.30
49841;BME280;35738;49.890;5.930;2024-02-04T04:50:19;96737.03;;;5.39;93.40
49841;BME280;35738;49.890;5.930;2024-02-04T04:52:45;96739.66;;;5.39;93.53
49841;BME280;35738;49.890;5.930;2024-02-04T04:55:12;96729.97;;;5.40;93.64
49841;BME280;35738;49.890;5.930;2024-02-04T04:57:39;96729.75;;;5.41;93.43
49841;BME280;35738;49.890;5.930;2024-02-04T05:00:06;96742.28;;;5.39;93.95
49841;BME280;35738;49.890;5.930;2024-02-04T05:02:36;96729.75;;;5.41;93.77
49841;BME280;35738;49.890;5.930;2024-02-04T05:05:03;96719.28;;;5.41;93.76
49841;BME280;35738;49.890;5.930;2024-02-04T05:07:29;96713.03;;;5.42;93.79
49841;BME280;35738;49.890;5.930;2024-02-04T05:09:56;96724.53;;;5.41;94.09
49841;BME280;35738;49.890;5.930;2024-02-04T05:12:23;96708.81;;;5.41;94.28
49841;BME280;35738;49.890;5.930;2024-02-04T05:14:49;96731.34;;;5.42;93.65
49841;BME280;35738;49.890;5.930;2024-02-04T05:17:16;96706.19;;;5.41;94.09
49841;BME280;35738;49.890;5.930;2024-02-04T05:19:43;96722.94;;;5.40;94.61
49841;BME280;35738;49.890;5.930;2024-02-04T05:22:09;96714.06;;;5.41;93.46
49841;BME280;35738;49.890;5.930;2024-02-04T05:24:36;96715.66;;;5.42;93.95
49841;BME280;35738;49.890;5.930;2024-02-04T05:27:03;96710.41;;;5.42;93.45
49841;BME280;35738;49.890;5.930;2024-02-04T05:29:31;96710.41;;;5.42;93.84
49841;BME280;35738;49.890;5.930;2024-02-04T05:31:57;96715.66;;;5.42;94.22
49841;BME280;35738;49.890;5.930;2024-02-04T05:34:24;96723.50;;;5.42;93.65
49841;BME280;35738;49.890;5.930;2024-02-04T05:36:50;96715.19;;;5.45;93.84
49841;BME280;35738;49.890;5.930;2024-02-04T05:39:17;96714.41;;;5.45;93.38
49841;BME280;35738;49.890;5.930;2024-02-04T05:41:43;96732.94;;;5.43;93.63
49841;BME280;35738;49.890;5.930;2024-02-04T05:44:10;96727.72;;;5.43;94.12
49841;BME280;35738;49.890;5.930;2024-02-04T05:46:37;96716.22;;;5.44;94.11
49841;BME280;35738;49.890;5.930;2024-02-04T05:49:04;96713.59;;;5.44;94.16
49841;BME280;35738;49.890;5.930;2024-02-04T05:51:32;96720.44;;;5.45;93.59
49841;BME280;35738;49.890;5.930;2024-02-04T05:53:59;96724.06;;;5.44;94.42
49841;BME280;35738;49.890;5.930;2024-02-04T05:56:26;96718.84;;;5.44;93.54
49841;BME280;35738;49.890;5.930;2024-02-04T05:58:52;96715.19;;;5.45;94.34
49841;BME280;35738;49.890;5.930;2024-02-04T06:01:19;96717.81;;;5.45;95.12
49841;BME280;35738;49.890;5.930;2024-02-04T06:03:45;96716.78;;;5.46;94.30
49841;BME280;35738;49.890;5.930;2024-02-04T06:06:16;96728.84;;;5.47;94.03
49841;BME280;35738;49.890;5.930;2024-02-04T06:08:42;96718.38;;;5.47;94.18
49841;BME280;35738;49.890;5.930;2024-02-04T06:11:10;96718.38;;;5.47;94.37
49841;BME280;35738;49.890;5.930;2024-02-04T06:13:42;96716.78;;;5.46;94.90
49841;BME280;35738;49.890;5.930;2024-02-04T06:16:09;96713.94;;;5.48;94.29
49841;BME280;35738;49.890;5.930;2024-02-04T06:18:39;96706.88;;;5.48;94.67
49841;BME280;35738;49.890;5.930;2024-02-04T06:21:07;96716.78;;;5.46;93.78
49841;BME280;35738;49.890;5.930;2024-02-04T06:23:34;96713.13;;;5.47;94.05
49841;BME280;35738;49.890;5.930;2024-02-04T06:26:01;96716.78;;;5.46;93.80
49841;BME280;35738;49.890;5.930;2024-02-04T06:28:27;96710.75;;;5.46;94.00
49841;BME280;35738;49.890;5.930;2024-02-04T06:30:54;96732.50;;;5.46;94.53
49841;BME280;35738;49.890;5.930;2024-02-04T06:33:21;96725.22;;;5.48;93.92
49841;BME280;35738;49.890;5.930;2024-02-04T06:35:50;96728.84;;;5.47;94.26
49841;BME280;35738;49.890;5.930;2024-02-04T06:38:16;96742.97;;;5.46;94.06
49841;BME280;35738;49.890;5.930;2024-02-04T06:40:43;96732.50;;;5.46;94.39
49841;BME280;35738;49.890;5.930;2024-02-04T06:43:09;96742.16;;;5.46;94.48
49841;BME280;35738;49.890;5.930;2024-02-04T06:45:36;96721.22;;;5.46;94.01
49841;BME280;35738;49.890;5.930;2024-02-04T06:48:03;96722.81;;;5.47;94.33
49841;BME280;35738;49.890;5.930;2024-02-04T06:50:29;96722.81;;;5.47;93.74
49841;BME280;35738;49.890;5.930;2024-02-04T06:52:56;96718.84;;;5.44;93.77
49841;BME280;35738;49.890;5.930;2024-02-04T06:55:22;96724.06;;;5.44;94.37
49841;BME280;35738;49.890;5.930;2024-02-04T06:57:49;96713.59;;;5.44;94.19
49841;BME280;35738;49.890;5.930;2024-02-04T07:00:16;96716.22;;;5.44;94.39
49841;BME280;35738;49.890;5.930;2024-02-04T07:02:42;96718.84;;;5.44;94.58
49841;BME280;35738;49.890;5.930;2024-02-04T07:05:09;96714.63;;;5.43;94.52
49841;BME280;35738;49.890;5.930;2024-02-04T07:07:37;96711.22;;;5.43;93.99
49841;BME280;35738;49.890;5.930;2024-02-04T07:10:04;96719.06;;;5.43;94.37
49841;BME280;35738;49.890;5.930;2024-02-04T07:12:31;96699.94;;;5.42;93.74
49841;BME280;35738;49.890;5.930;2024-02-04T07:14:58;96712.00;;;5.43;94.14
49841;BME280;35738;49.890;5.930;2024-02-04T07:17:25;96708.34;;;5.44;94.06
49841;BME280;35738;49.890;5.930;2024-02-04T07:19:51;96718.84;;;5.44;93.96
49841;BME280;35738;49.890;5.930;2024-02-04T07:22:18;96718.84;;;5.44;94.60
49841;BME280;35738;49.890;5.930;2024-02-04T07:24:44;96715.19;;;5.45;93.83
49841;BME280;35738;49.890;5.930;2024-02-04T07:27:11;96720.44;;;5.45;93.84
49841;BME280;35738;49.890;5.930;2024-02-04T07:29:40;96718.84;;;5.44;94.60
49841;BME280;35738;49.890;5.930;2024-02-04T07:32:07;96713.59;;;5.44;93.72
49841;BME280;35738;49.890;5.930;2024-02-04T07:34:33;96720.44;;;5.45;94.04
49841;BME280;35738;49.890;5.930;2024-02-04T07:37:00;96715.19;;;5.45;94.26
49841;BME280;35738;49.890;5.930;2024-02-04T07:39:27;96710.75;;;5.46;95.20
49841;BME280;35738;49.890;5.930;2024-02-04T07:41:53;96722.81;;;5.47;94.20
49841;BME280;35738;49.890;5.930;2024-02-04T07:44:22;96706.31;;;5.46;94.41
49841;BME280;35738;49.890;5.930;2024-02-04T07:46:50;96721.00;;;5.47;94.32
49841;BME280;35738;49.890;5.930;2024-02-04T07:49:17;96718.38;;;5.47;94.30
49841;BME280;35738;49.890;5.930;2024-02-04T07:51:44;96718.94;;;5.50;94.70
49841;BME280;35738;49.890;5.930;2024-02-04T07:54:10;96719.75;;;5.50;94.40
49841;BME280;35738;49.890;5.930;2024-02-04T07:56:37;96720.31;;;5.52;93.49
49841;BME280;35738;49.890;5.930;2024-02-04T07:59:04;96716.44;;;5.55;93.70
49841;BME280;35738;49.890;5.930;2024-02-04T08:01:31;96727.94;;;5.54;94.30
49841;BME280;35738;49.890;5.930;2024-02-04T08:03:57;96726.47;;;5.58;94.30
49841;BME280;35738;49.890;5.930;2024-02-04T08:06:24;96708.59;;;5.55;94.31
49841;BME280;35738;49.890;5.930;2024-02-04T08:08:51;96725.88;;;5.56;93.93
49841;BME280;35738;49.890;5.930;2024-02-04T08:11:18;96726.69;;;5.56;94.14
49841;BME280;35738;49.890;5.930;2024-02-04T08:13:44;96728.50;;;5.56;93.99
49841;BME280;35738;49.890;5.930;2024-02-04T08:16:12;96699.72;;;5.56;94.06
49841;BME280;35738;49.890;5.930;2024-02-04T08:18:39;96722.25;;;5.57;93.98
49841;BME280;35738;49.890;5.930;2024-02-04T08:21:06;96728.50;;;5.56;94.70
49841;BME280;35738;49.890;5.930;2024-02-04T08:23:33;96718.03;;;5.56;94.50
49841;BME280;35738;49.890;5.930;2024-02-04T08:25:59;96726.47;;;5.58;94.40
49841;BME280;35738;49.890;5.930;2024-02-04T08:28:26;96727.47;;;5.57;94.71
49841;BME280;35738;49.890;5.930;2024-02-04T08:30:53;96717.00;;;5.57;93.79
49841;BME280;35738;49.890;5.930;2024-02-04T08:33:19;96712.38;;;5.59;94.96
49841;BME280;35738;49.890;5.930;2024-02-04T08:35:46;96723.84;;;5.58;93.95
49841;BME280;35738;49.890;5.930;2024-02-04T08:38:13;96714.75;;;5.60;93.56
49841;BME280;35738;49.890;5.930;2024-02-04T08:40:39;96713.75;;;5.61;93.87
49841;BME280;35738;49.890;5.930;2024-02-04T08:43:06;96704.06;;;5.62;93.75
49841;BME280;35738;49.890;5.930;2024-02-04T08:45:32;96689.94;;;5.63;94.66
49841;BME280;35738;49.890;5.930;2024-02-04T08:47:59;96698.38;;;5.65;94.84
49841;BME280;35738;49.890;5.930;2024-02-04T08:50:26;96707.34;;;5.69;94.32
49841;BME280;35738;49.890;5.930;2024-02-04T08:52:53;96697.78;;;5.74;94.27
49841;BME280;35738;49.890;5.930;2024-02-04T08:55:19;96707.84;;;5.77;94.18
49841;BME280;35738;49.890;5.930;2024-02-04T08:57:46;96694.94;;;5.76;94.21
49841;BME280;35738;49.890;5.930;2024-02-04T09:00:15;96704.97;;;5.79;94.40
49841;BME280;35738;49.890;5.930;2024-02-04T09:02:42;96700.19;;;5.76;93.67
49841;BME280;35738;49.890;5.930;2024-02-04T09:05:09;96695.97;;;5.75;93.74
49841;BME280;35738;49.890;5.930;2024-02-04T09:07:35;96706.00;;;5.78;94.65
49841;BME280;35738;49.890;5.930;2024-02-04T09:10:02;96704.53;;;5.82;94.36
49841;BME280;35738;49.890;5.930;2024-02-04T09:12:29;96707.72;;;5.84;93.99
49841;BME280;35738;49.890;5.930;2024-02-04T09:14:56;96709.31;;;5.85;94.22
49841;BME280;35738;49.890;5.930;2024-02-04T09:17:23;96707.94;;;5.83;93.92
49841;BME280;35738;49.890;5.930;2024-02-04T09:19:49;96689.84;;;5.81;94.71
49841;BME280;35738;49.890;5.930;2024-02-04T09:22:16;96708.63;;;5.78;94.32
49841;BME280;35738;49.890;5.930;2024-02-04T09:24:43;96684.03;;;5.79;94.21
49841;BME280;35738;49.890;5.930;2024-02-04T09:27:10;96675.72;;;5.82;94.56
49841;BME280;35738;49.890;5.930;2024-02-04T09:29:36;96714.19;;;5.82;94.10
49841;BME280;35738;49.890;5.930;2024-02-04T09:32:03;96689.38;;;5.84;94.40
49841;BME280;35738;49.890;5.930;2024-02-04T09:34:30;96706.69;;;5.85;94.46
49841;BME280;35738;49.890;5.930;2024-02-04T09:36:57;96697.78;;;5.86;94.29
49841;BME280;35738;49.890;5.930;2024-02-04T09:39:24;96703.16;;;5.91;93.90
49841;BME280;35738;49.890;5.930;2024-02-04T09:41:51;96700.69;;;5.96;94.41
49841;BME280;35738;49.890;5.930;2024-02-04T09:44:17;96695.88;;;5.93;94.71
49841;BME280;35738;49.890;5.930;2024-02-04T09:46:45;96703.41;;;6.01;94.95
49841;BME280;35738;49.890;5.930;2024-02-04T09:49:12;96688.03;;;6.05;94.22
49841;BME280;35738;49.890;5.930;2024-02-04T09:51:40;96703.06;;;6.10;94.92
49841;BME280;35738;49.890;5.930;2024-02-04T09:54:09;96698.72;;;6.15;94.44
49841;BME280;35738;49.890;5.930;2024-02-04T09:56:37;96708.41;;;6.15;93.89
49841;BME280;35738;49.890;5.930;2024-02-04T09:59:04;96703.19;;;6.15;93.97
49841;BME280;35738;49.890;5.930;2024-02-04T10:01:31;96725.59;;;6.11;94.14
49841;BME280;35738;49.890;5.930;2024-02-04T10:03:59;96721.72;;;6.13;93.97
49841;BME280;35738;49.890;5.930;2024-02-04T10:06:26;96716.16;;;6.10;94.97
49841;BME280;35738;49.890;5.930;2024-02-04T10:08:53;96725.03;;;6.08;94.74
49841;BME280;35738;49.890;5.930;2024-02-04T10:11:20;96732.09;;;6.08;94.29
49841;BME280;35738;49.890;5.930;2024-02-04T10:13:48;96732.91;;;6.08;93.50
49841;BME280;35738;49.890;5.930;2024-02-04T10:16:16;96743.38;;;6.08;94.69
49841;BME280;35738;49.890;5.930;2024-02-04T10:18:44;96753.88;;;6.08;93.97
49841;BME280;35738;49.890;5.930;2024-02-04T10:23:42;96752.28;;;6.07;93.97
49841;BME280;35738;49.890;5.930;2024-02-04T10:26:08;96721.84;;;6.06;93.47
49841;BME280;35738;49.890;5.930;2024-02-04T10:28:36;96716.16;;;6.10;93.71
49841;BME280;35738;49.890;5.930;2024-02-04T10:31:02;96729.38;;;6.15;94.64
49841;BME280;35738;49.890;5.930;2024-02-04T10:33:32;96734.16;;;6.18;94.77
49841;BME280;35738;49.890;5.930;2024-02-04T10:35:59;96737.91;;;6.22;94.80
49841;BME280;35738;49.890;5.930;2024-02-04T10:38:25;96733.81;;;6.26;94.65
49841;BME280;35738;49.890;5.930;2024-02-04T10:40:54;96705.75;;;6.26;94.03
49841;BME280;35738;49.890;5.930;2024-02-04T10:43:21;96704.72;;;6.27;93.50
49841;BME280;35738;49.890;5.930;2024-02-04T10:45:52;96693.56;;;6.32;94.56
49841;BME280;35738;49.890;5.930;2024-02-04T10:48:20;96700.41;;;6.33;93.69
49841;BME280;35738;49.890;5.930;2024-02-04T10:50:51;96705.66;;;6.33;94.88
49841;BME280;35738;49.890;5.930;2024-02-04T10:53:19;96719.75;;;6.32;94.61
49841;BME280;35738;49.890;5.930;2024-02-04T10:55:48;96715.13;;;6.34;93.50
49841;BME280;35738;49.890;5.930;2024-02-04T10:58:16;96715.56;;;6.31;94.01
49841;BME280;35738;49.890;5.930;2024-02-04T11:00:44;96709.28;;;6.32;93.99
49841;BME280;35738;49.890;5.930;2024-02-04T11:03:12;96700.06;;;6.29;94.14
49841;BME280;35738;49.890;5.930;2024-02-04T11:05:41;96716.56;;;6.30;93.87
49841;BME280;35738;49.890;5.930;2024-02-04T11:08:10;96702.25;;;6.32;94.47
49841;BME280;35738;49.890;5.930;2024-02-04T11:10:39;96704.03;;;6.32;94.08
49841;BME280;35738;49.890;5.930;2024-02-04T11:13:06;96707.25;;;6.34;94.46
49841;BME280;35738;49.890;5.930;2024-02-04T11:15:36;96695.97;;;6.33;93.47
49841;BME280;35738;49.890;5.930;2024-02-04T11:21:13;96699.94;;;6.36;94.77
49841;BME280;35738;49.890;5.930;2024-02-04T11:24:05;96714.41;;;6.38;93.66
49841;BME280;35738;49.890;5.930;2024-02-04T11:26:35;96696.84;;;6.39;93.67
49841;BME280;35738;49.890;5.930;2024-02-04T11:29:04;96687.41;;;6.38;94.20
49841;BME280;35738;49.890;5.930;2024-02-04T11:31:31;96706.00;;;6.36;93.31
49841;BME280;35738;49.890;5.930;2024-02-04T11:33:58;96702.56;;;6.36;94.24
49841;BME280;35738;49.890;5.930;2024-02-04T11:36:25;96713.63;;;6.38;93.62
49841;BME280;35738;49.890;5.930;2024-02-04T11:38:52;96715.22;;;6.39;93.59
49841;BME280;35738;49.890;5.930;2024-02-04T11:41:23;96694.72;;;6.36;93.50
49841;BME280;35738;49.890;5.930;2024-02-04T11:43:55;96700.50;;;6.38;94.27
49841;BME280;35738;49.890;5.930;2024-02-04T11:46:30;96695.50;;;6.36;93.71
49841;BME280;35738;49.890;5.930;2024-02-04T11:48:59;96709.97;;;6.39;93.99
49841;BME280;35738;49.890;5.930;2024-02-04T11:51:26;96678.19;;;6.35;93.05
49841;BME280;35738;49.890;5.930;2024-02-04T11:53:53;96676.34;;;6.36;93.51
49841;BME280;35738;49.890;5.930;2024-02-04T11:56:21;96683.19;;;6.37;93.50
49841;BME280;35738;49.890;5.930;2024-02-04T11:58:53;96694.72;;;6.36;93.33
49841;BME280;35738;49.890;5.930;2024-02-04T12:01:22;96691.28;;;6.35;93.53
49841;BME280;35738;49.890;5.930;2024-02-04T12:03:50;96693.91;;;6.35;93.81
49841;BME280;35738;49.890;5.930;2024-02-04T12:06:18;96682.63;;;6.35;94.81
49841;BME280;35738;49.890;5.930;2024-02-04T12:08:45;96681.03;;;6.34;94.43
49841;BME280;35738;49.890;5.930;2024-02-04T12:11:12;96658.00;;;6.36;93.90
49841;BME280;35738;49.890;5.930;2024-02-04T12:13:39;96677.38;;;6.35;93.42
49841;BME280;35738;49.890;5.930;2024-02-04T12:16:08;96672.47;;;6.38;93.95
49841;BME280;35738;49.890;5.930;2024-02-04T12:18:35;96661.19;;;6.38;93.68
49841;BME280;35738;49.890;5.930;2024-02-04T12:21:02;96659.13;;;6.40;94.52
49841;BME280;35738;49.890;5.930;2024-02-04T12:23:28;96652.28;;;6.39;93.90
49841;BME280;35738;49.890;5.930;2024-02-04T12:25:55;96665.63;;;6.37;94.05
49841;BME280;35738;49.890;5.930;2024-02-04T12:28:22;96663.25;;;6.36;93.65
49841;BME280;35738;49.890;5.930;2024-02-04T12:30:53;96657.22;;;6.35;93.88
49841;BME280;35738;49.890;5.930;2024-02-04T12:33:21;96642.28;;;6.36;94.47
49841;BME280;35738;49.890;5.930;2024-02-04T12:35:52;96652.75;;;6.36;93.89
49841;BME280;35738;49.890;5.930;2024-02-04T12:38:21;96643.53;;;6.33;93.78
49841;BME280;35738;49.890;5.930;2024-02-04T12:40:48;96642.28;;;6.36;94.00
49841;BME280;35738;49.890;5.930;2024-02-04T12:43:15;96645.94;;;6.35;94.87
49841;BME280;35738;49.890;5.930;2024-02-04T12:45:42;96643.88;;;6.37;93.42
49841;BME280;35738;49.890;5.930;2024-02-04T12:48:08;96646.56;;;6.42;94.21
49841;BME280;35738;49.890;5.930;2024-02-04T12:50:38;96634.50;;;6.41;93.72
49841;BME280;35738;49.890;5.930;2024-02-04T12:53:07;96646.66;;;6.47;93.86
49841;BME280;35738;49.890;5.930;2024-02-04T12:55:36;96619.88;;;6.45;93.84
49841;BME280;35738;49.890;5.930;2024-02-04T12:58:06;96635.06;;;6.43;94.89
49841;BME280;35738;49.890;5.930;2024-02-04T13:00:35;96630.84;;;6.42;94.62
49841;BME280;35738;49.890;5.930;2024-02-04T13:03:04;96641.34;;;6.42;93.65
49841;BME280;35738;49.890;5.930;2024-02-04T13:05:31;96610.66;;;6.43;94.49
49841;BME280;35738;49.890;5.930;2024-02-04T13:07:58;96631.63;;;6.43;93.31
49841;BME280;35738;49.890;5.930;2024-02-04T13:10:29;96606.22;;;6.43;94.10
49841;BME280;35738;49.890;5.930;2024-02-04T13:13:06;96638.25;;;6.45;93.72
49841;BME280;35738;49.890;5.930;2024-02-04T13:15:39;96629.34;;;6.46;94.37
49841;BME280;35738;49.890;5.930;2024-02-04T13:18:09;96614.66;;;6.45;93.64
49841;BME280;35738;49.890;5.930;2024-02-04T13:20:38;96640.06;;;6.45;93.49
49841;BME280;35738;49.890;5.930;2024-02-04T13:23:05;96628.53;;;6.46;93.41